Time;durP1;ratioP1;P1;durP2;ratioP2;P2;SDS_P1;SDS_P2;PMS_P1;PMS_P2;Temp;Humidity;BMP_temperature;BMP_pressure;BME280_temperature;BME280_humidity;BME280_pressure;Samples;Min_cycle;Max_cycle;Signal;HPM_P1;HPM_P2
2022/03/15 00:02:00;;;;;;;3.30;2.20;;;13.70;99.90;;;;;;5061262;28;20456;-60
2022/03/15 00:04:33;;;;;;;4.03;1.90;;;13.40;99.90;;;;;;5060603;28;20664;-61
2022/03/15 00:07:04;;;;;;;4.73;2.13;;;13.50;99.90;;;;;;5060831;28;20460;-61
2022/03/15 00:09:35;;;;;;;2.77;2.27;;;13.50;99.90;;;;;;5062514;28;20452;-61
2022/03/15 00:12:08;;;;;;;3.03;2.03;;;13.30;99.90;;;;;;5062577;28;20452;-59
2022/03/15 00:14:40;;;;;;;5.40;2.70;;;13.00;99.90;;;;;;5060377;28;20454;-58
2022/03/15 00:17:19;;;;;;;2.40;2.20;;;12.70;99.90;;;;;;5064883;28;20498;-60
2022/03/15 00:19:55;;;;;;;3.83;2.43;;;12.40;99.90;;;;;;5058606;28;20480;-59
2022/03/15 00:22:26;;;;;;;4.43;3.03;;;12.20;99.90;;;;;;5061267;28;20439;-59
2022/03/15 00:24:57;;;;;;;4.77;3.30;;;12.10;99.90;;;;;;5059648;28;20448;-59
2022/03/15 00:27:27;;;;;;;3.17;2.80;;;12.00;99.90;;;;;;5058397;28;20458;-59
2022/03/15 00:29:58;;;;;;;4.17;3.03;;;12.00;99.90;;;;;;5060464;28;20456;-59
2022/03/15 00:32:29;;;;;;;3.13;2.40;;;11.80;99.90;;;;;;5060593;28;20527;-60
2022/03/15 00:35:02;;;;;;;5.63;2.80;;;11.60;99.90;;;;;;5059578;28;20456;-59
2022/03/15 00:37:36;;;;;;;2.67;2.30;;;11.60;99.90;;;;;;5060368;28;20439;-59
2022/03/15 00:40:08;;;;;;;4.00;2.73;;;11.60;99.90;;;;;;5063263;28;20545;-59
2022/03/15 00:42:39;;;;;;;5.30;2.53;;;11.50;99.90;;;;;;5052725;28;20448;-59
2022/03/15 00:45:11;;;;;;;3.40;2.90;;;11.50;99.90;;;;;;5063669;28;20570;-59
2022/03/15 00:47:42;;;;;;;3.50;3.20;;;11.40;99.90;;;;;;5064714;28;20982;-59
2022/03/15 00:50:14;;;;;;;3.23;2.93;;;11.30;99.90;;;;;;5058136;28;20536;-58
2022/03/15 00:52:45;;;;;;;4.87;2.97;;;11.30;99.90;;;;;;5063887;28;21213;-59
2022/03/15 00:55:16;;;;;;;4.23;2.50;;;11.20;99.90;;;;;;5068540;28;20466;-59
2022/03/15 00:57:47;;;;;;;4.40;3.50;;;11.10;99.90;;;;;;5068207;28;20455;-59
2022/03/15 01:00:19;;;;;;;3.90;2.83;;;11.00;99.90;;;;;;5065864;28;20495;-59
2022/03/15 01:02:50;;;;;;;5.87;3.53;;;10.90;99.90;;;;;;5063131;28;20449;-59
2022/03/15 01:05:22;;;;;;;4.90;3.30;;;10.80;99.90;;;;;;5063579;28;20459;-59
2022/03/15 01:07:53;;;;;;;5.00;3.57;;;10.80;99.90;;;;;;5064730;28;20558;-58
2022/03/15 01:10:24;;;;;;;4.03;2.83;;;10.60;99.90;;;;;;5064535;28;20452;-58
2022/03/15 01:12:55;;;;;;;3.73;3.03;;;10.50;99.90;;;;;;5061567;28;20456;-60
2022/03/15 01:15:26;;;;;;;4.10;2.97;;;10.50;99.90;;;;;;5062750;28;20480;-58
2022/03/15 01:17:57;;;;;;;3.17;2.90;;;10.40;99.90;;;;;;5063774;28;20769;-59
2022/03/15 01:20:29;;;;;;;5.50;3.00;;;10.40;99.90;;;;;;5064533;28;20846;-59
2022/03/15 01:23:00;;;;;;;4.77;2.90;;;10.30;99.90;;;;;;5067366;28;20437;-60
2022/03/15 01:25:31;;;;;;;5.37;4.27;;;10.30;99.90;;;;;;5060759;28;20827;-61
2022/03/15 01:28:02;;;;;;;4.13;3.27;;;10.20;99.90;;;;;;5062267;28;20460;-61
2022/03/15 01:30:33;;;;;;;5.57;3.80;;;10.10;99.90;;;;;;5064259;28;20924;-63
2022/03/15 01:33:04;;;;;;;7.10;4.17;;;10.00;99.90;;;;;;5063488;28;20457;-62
2022/03/15 01:35:37;;;;;;;10.50;5.97;;;10.00;99.90;;;;;;5067962;28;20548;-62
2022/03/15 01:38:07;;;;;;;8.90;4.50;;;9.90;99.90;;;;;;5064245;28;20444;-60
2022/03/15 01:40:39;;;;;;;5.43;3.60;;;9.90;99.90;;;;;;5064583;28;20490;-58
2022/03/15 01:43:09;;;;;;;6.13;4.60;;;9.80;99.90;;;;;;5061697;28;20460;-59
2022/03/15 01:45:42;;;;;;;7.70;3.97;;;9.80;99.90;;;;;;5063313;28;20444;-56
2022/03/15 01:48:13;;;;;;;4.00;3.33;;;9.80;99.90;;;;;;5062700;28;20452;-59
2022/03/15 01:50:45;;;;;;;3.63;2.97;;;9.80;99.90;;;;;;5063067;28;20433;-56
2022/03/15 01:53:17;;;;;;;6.40;3.60;;;9.80;99.90;;;;;;5061606;28;20463;-59
2022/03/15 01:55:48;;;;;;;6.13;4.10;;;9.80;99.90;;;;;;5061758;28;20202;-58
2022/03/15 01:58:19;;;;;;;7.90;4.90;;;9.80;99.90;;;;;;5061935;28;20911;-59
2022/03/15 02:00:50;;;;;;;7.70;4.88;;;9.80;99.90;;;;;;5063373;28;20491;-59
2022/03/15 02:03:21;;;;;;;7.88;5.07;;;9.90;99.90;;;;;;5060913;28;20201;-60
2022/03/15 02:05:54;;;;;;;7.53;5.13;;;9.90;99.90;;;;;;5061893;28;20202;-58
2022/03/15 02:08:24;;;;;;;9.70;5.93;;;9.90;99.90;;;;;;5062385;28;20574;-59
2022/03/15 02:10:55;;;;;;;8.47;4.93;;;9.90;99.90;;;;;;5061561;28;20464;-59
2022/03/15 02:13:26;;;;;;;7.50;5.43;;;9.90;99.90;;;;;;5061775;28;20577;-56
2022/03/15 02:15:57;;;;;;;6.80;5.23;;;9.80;99.90;;;;;;5063428;28;20488;-57
2022/03/15 02:18:31;;;;;;;7.40;5.00;;;9.80;99.90;;;;;;5063162;28;20457;-60
2022/03/15 02:21:04;;;;;;;6.13;4.73;;;9.90;99.90;;;;;;5072728;28;20235;-61
2022/03/15 02:23:35;;;;;;;10.80;5.63;;;9.90;99.90;;;;;;5062059;28;20453;-59
2022/03/15 02:26:06;;;;;;;5.73;5.10;;;9.80;99.90;;;;;;5062617;28;20457;-58
2022/03/15 02:28:37;;;;;;;7.70;6.20;;;9.80;99.90;;;;;;5051661;28;20460;-60
2022/03/15 02:31:08;;;;;;;6.53;5.03;;;9.80;99.90;;;;;;5062351;28;20495;-60
2022/03/15 02:33:39;;;;;;;7.10;4.97;;;9.70;99.90;;;;;;5062680;28;20441;-60
2022/03/15 02:36:11;;;;;;;6.83;5.20;;;9.70;99.90;;;;;;5063408;28;20448;-60
2022/03/15 02:38:42;;;;;;;11.10;6.22;;;9.70;99.90;;;;;;5062420;28;20452;-61
2022/03/15 02:41:13;;;;;;;6.20;5.50;;;9.70;99.90;;;;;;5062226;28;20233;-59
2022/03/15 02:43:45;;;;;;;9.03;6.23;;;9.80;99.90;;;;;;5066372;28;20466;-59
2022/03/15 02:46:17;;;;;;;7.87;6.00;;;9.80;99.90;;;;;;5062272;28;20519;-58
2022/03/15 02:48:48;;;;;;;8.87;6.50;;;9.80;99.90;;;;;;5062407;28;20938;-58
2022/03/15 02:51:21;;;;;;;12.20;6.93;;;9.80;99.90;;;;;;5062567;28;20464;-58
2022/03/15 02:53:53;;;;;;;6.80;6.07;;;9.80;99.90;;;;;;5062786;28;20453;-58
2022/03/15 02:56:23;;;;;;;11.10;7.07;;;10.00;99.90;;;;;;5062416;28;20478;-59
2022/03/15 02:58:54;;;;;;;9.17;6.50;;;10.00;99.90;;;;;;5062432;28;20461;-59
2022/03/15 03:01:25;;;;;;;6.93;6.23;;;9.90;99.90;;;;;;5059836;28;20494;-60
2022/03/15 03:03:57;;;;;;;9.70;7.03;;;9.90;99.90;;;;;;5062078;28;21056;-60
2022/03/15 03:06:29;;;;;;;9.50;7.07;;;9.90;99.90;;;;;;5062487;28;20515;-60
2022/03/15 03:09:00;;;;;;;11.30;6.95;;;9.90;99.90;;;;;;5064449;28;20458;-60
2022/03/15 03:11:31;;;;;;;12.30;6.43;;;9.90;99.90;;;;;;5062784;28;20217;-60
2022/03/15 03:14:03;;;;;;;11.93;8.17;;;9.90;99.90;;;;;;5062310;28;20458;-60
2022/03/15 03:16:34;;;;;;;10.67;8.40;;;9.90;99.90;;;;;;5063239;28;20468;-59
2022/03/15 03:19:07;;;;;;;12.87;9.53;;;9.90;99.90;;;;;;5073238;28;20499;-60
2022/03/15 03:21:40;;;;;;;14.00;12.50;;;9.80;99.90;;;;;;5059785;28;20484;-60
2022/03/15 03:24:11;;;;;;;10.67;9.67;;;9.90;99.90;;;;;;5061715;28;20589;-60
2022/03/15 03:26:42;;;;;;;11.90;9.45;;;9.90;99.90;;;;;;5061505;28;20444;-59
2022/03/15 03:29:15;;;;;;;13.30;8.43;;;9.80;99.90;;;;;;5060914;28;20536;-59
2022/03/15 03:31:46;;;;;;;12.90;8.45;;;9.90;99.90;;;;;;5061124;28;20809;-60
2022/03/15 03:34:17;;;;;;;10.33;8.10;;;9.80;99.90;;;;;;5062764;28;20265;-59
2022/03/15 03:36:50;;;;;;;11.23;7.60;;;9.80;99.90;;;;;;5067480;28;20448;-59
2022/03/15 03:39:27;;;;;;;8.50;7.67;;;9.80;99.90;;;;;;5063595;28;20444;-59
2022/03/15 03:41:59;;;;;;;14.13;9.30;;;9.80;99.90;;;;;;5061706;28;20514;-60
2022/03/15 03:44:29;;;;;;;9.70;8.23;;;9.80;99.90;;;;;;5061345;28;20647;-60
2022/03/15 03:47:00;;;;;;;14.00;8.10;;;9.80;99.90;;;;;;5069173;28;20470;-60
2022/03/15 03:49:32;;;;;;;10.97;8.80;;;9.90;99.90;;;;;;5061758;28;20460;-60
2022/03/15 03:52:05;;;;;;;9.60;8.03;;;9.80;99.90;;;;;;5062059;28;20452;-60
2022/03/15 03:54:36;;;;;;;9.27;8.00;;;9.80;99.90;;;;;;5062194;28;20440;-60
2022/03/15 03:57:07;;;;;;;13.67;8.80;;;9.80;99.90;;;;;;5063158;28;20943;-60
2022/03/15 03:59:38;;;;;;;10.27;8.57;;;9.80;99.90;;;;;;5067881;28;20528;-60
2022/03/15 04:02:13;;;;;;;9.43;8.07;;;9.90;99.90;;;;;;5071019;28;20565;-59
2022/03/15 04:04:47;;;;;;;9.93;8.07;;;9.90;99.90;;;;;;5063840;28;20568;-59
2022/03/15 04:07:19;;;;;;;11.67;8.40;;;10.00;99.90;;;;;;5065337;28;20468;-59
2022/03/15 04:09:52;;;;;;;11.60;8.40;;;9.90;99.90;;;;;;5062032;28;20448;-59
2022/03/15 04:12:24;;;;;;;12.17;8.83;;;9.90;99.90;;;;;;5060693;28;20452;-60
2022/03/15 04:14:57;;;;;;;12.73;9.10;;;10.00;99.90;;;;;;5060582;28;20519;-59
2022/03/15 04:17:28;;;;;;;10.52;8.80;;;10.00;99.90;;;;;;5060516;28;20471;-59
2022/03/15 04:19:59;;;;;;;13.17;9.50;;;10.00;99.90;;;;;;5063334;28;20204;-59
2022/03/15 04:22:31;;;;;;;9.53;8.50;;;9.90;99.90;;;;;;5064631;28;20560;-59
2022/03/15 04:25:02;;;;;;;9.87;8.73;;;9.90;99.90;;;;;;5065635;28;20448;-59
2022/03/15 04:27:33;;;;;;;12.73;9.27;;;10.00;99.90;;;;;;5064460;28;20548;-59
2022/03/15 04:30:05;;;;;;;9.13;7.87;;;9.90;99.90;;;;;;5065077;28;20467;-59
2022/03/15 04:32:38;;;;;;;11.70;8.97;;;9.90;99.90;;;;;;5064509;28;20475;-58
2022/03/15 04:35:09;;;;;;;11.93;9.67;;;9.90;99.90;;;;;;5064294;28;20452;-59
2022/03/15 04:37:42;;;;;;;10.93;9.47;;;9.90;99.90;;;;;;5063673;28;20452;-59
2022/03/15 04:40:17;;;;;;;13.27;9.23;;;9.90;99.90;;;;;;5064755;28;20514;-60
2022/03/15 04:42:50;;;;;;;11.37;9.03;;;9.90;99.90;;;;;;5062441;28;20516;-60
2022/03/15 04:45:22;;;;;;;13.20;10.40;;;9.90;99.90;;;;;;5064205;28;20459;-60
2022/03/15 04:47:53;;;;;;;13.30;10.53;;;9.90;99.90;;;;;;5061425;28;20627;-60
2022/03/15 04:50:24;;;;;;;16.50;10.83;;;9.90;99.90;;;;;;5065793;28;20440;-59
2022/03/15 04:52:56;;;;;;;15.27;12.15;;;9.90;99.90;;;;;;5063977;28;20452;-60
2022/03/15 04:55:27;;;;;;;14.67;10.87;;;9.90;99.90;;;;;;5062947;28;20213;-60
2022/03/15 04:57:58;;;;;;;10.20;8.93;;;9.80;99.90;;;;;;5064093;28;20456;-59
2022/03/15 05:00:29;;;;;;;11.48;8.98;;;9.80;99.90;;;;;;5056332;28;20466;-60
2022/03/15 05:03:00;;;;;;;8.75;7.72;;;9.80;99.90;;;;;;5064453;28;20227;-60
2022/03/15 05:05:31;;;;;;;12.38;7.25;;;9.80;99.90;;;;;;5064960;28;20217;-60
2022/03/15 05:08:03;;;;;;;12.07;7.93;;;9.80;99.90;;;;;;5074440;28;20573;-60
2022/03/15 05:13:21;;;;;;;9.37;7.40;;;9.80;99.90;;;;;;5064059;28;20470;-58
2022/03/15 05:15:53;;;;;;;8.33;7.53;;;9.80;99.90;;;;;;5070296;28;20479;-61
2022/03/15 05:18:24;;;;;;;9.03;7.03;;;9.80;99.90;;;;;;5069008;28;20472;-59
2022/03/15 05:20:55;;;;;;;9.93;7.00;;;9.80;99.90;;;;;;5064077;28;20467;-59
2022/03/15 05:23:28;;;;;;;9.80;7.30;;;9.80;99.90;;;;;;5064421;28;20485;-59
2022/03/15 05:25:59;;;;;;;10.70;8.30;;;9.80;99.90;;;;;;5064763;28;20452;-59
2022/03/15 05:28:30;;;;;;;10.00;7.85;;;9.80;99.90;;;;;;5062631;28;20467;-59
2022/03/15 05:31:00;;;;;;;10.60;7.80;;;9.80;99.90;;;;;;5057492;28;20202;-60
2022/03/15 05:33:32;;;;;;;8.07;7.30;;;9.80;99.90;;;;;;5063741;28;20520;-59
2022/03/15 05:36:03;;;;;;;8.50;7.60;;;9.80;99.90;;;;;;5064699;28;20185;-59
2022/03/15 05:38:35;;;;;;;8.53;7.53;;;9.80;99.90;;;;;;5065132;28;20463;-59
2022/03/15 05:41:08;;;;;;;11.30;8.60;;;9.80;99.90;;;;;;5053648;28;20457;-59
2022/03/15 05:43:55;;;;;;;11.27;8.40;;;9.90;99.90;;;;;;5064161;28;20554;-59
2022/03/15 05:46:26;;;;;;;10.53;7.30;;;9.90;99.90;;;;;;5063667;28;20451;-59
2022/03/15 05:48:58;;;;;;;7.10;5.47;;;9.90;99.90;;;;;;5063285;28;20539;-59
2022/03/15 05:51:29;;;;;;;8.00;5.67;;;9.90;99.90;;;;;;5057931;28;20480;-60
2022/03/15 05:54:01;;;;;;;7.30;6.07;;;9.90;99.90;;;;;;5063975;28;20939;-59
2022/03/15 05:56:34;;;;;;;7.57;6.50;;;9.90;99.90;;;;;;5062842;28;20456;-59
2022/03/15 05:59:04;;;;;;;8.27;6.67;;;9.90;99.90;;;;;;5058094;28;20452;-59
2022/03/15 06:01:35;;;;;;;6.17;5.57;;;9.90;99.90;;;;;;5063180;28;20468;-59
2022/03/15 06:04:07;;;;;;;7.90;5.80;;;9.90;99.90;;;;;;5062748;28;20495;-59
2022/03/15 06:06:38;;;;;;;8.47;6.03;;;9.90;99.90;;;;;;5064051;28;20452;-59
2022/03/15 06:09:11;;;;;;;7.40;5.27;;;9.90;99.90;;;;;;5062890;28;20951;-60
2022/03/15 06:11:42;;;;;;;7.10;5.80;;;10.00;99.90;;;;;;5063570;28;20479;-60
2022/03/15 06:14:13;;;;;;;8.90;6.10;;;10.00;99.90;;;;;;5071480;28;20455;-59
2022/03/15 06:16:44;;;;;;;6.17;5.40;;;10.10;99.90;;;;;;5067526;28;20505;-60
2022/03/15 06:19:15;;;;;;;7.50;5.60;;;10.10;99.90;;;;;;5062715;28;20484;-59
2022/03/15 06:21:46;;;;;;;6.37;5.47;;;10.10;99.90;;;;;;5063912;28;20456;-60
2022/03/15 06:24:19;;;;;;;5.90;5.00;;;10.10;99.90;;;;;;5071240;28;20483;-59
2022/03/15 06:26:50;;;;;;;7.27;5.50;;;10.10;99.90;;;;;;5063166;28;20460;-60
2022/03/15 06:29:20;;;;;;;6.97;6.27;;;10.10;99.90;;;;;;5061235;28;20456;-59
2022/03/15 06:31:53;;;;;;;8.90;5.77;;;10.10;99.90;;;;;;5063034;28;20456;-59
2022/03/15 06:34:44;;;;;;;7.27;5.20;;;10.20;99.90;;;;;;5063137;28;20448;-59
2022/03/15 06:37:15;;;;;;;5.67;4.97;;;10.20;99.90;;;;;;5059329;28;20441;-60
2022/03/15 06:39:48;;;;;;;5.60;5.00;;;10.20;99.90;;;;;;5063184;28;20993;-59
2022/03/15 06:42:19;;;;;;;5.50;5.00;;;10.10;99.90;;;;;;5061419;28;20452;-60
2022/03/15 06:44:52;;;;;;;5.17;4.70;;;10.20;99.90;;;;;;5063087;28;20488;-60
2022/03/15 06:47:23;;;;;;;7.83;5.20;;;10.20;99.90;;;;;;5062720;28;20564;-60
2022/03/15 06:49:54;;;;;;;5.90;5.07;;;10.10;99.90;;;;;;5062563;28;20471;-59
2022/03/15 06:52:25;;;;;;;8.13;6.30;;;10.20;99.90;;;;;;5062264;28;20468;-60
2022/03/15 06:55:00;;;;;;;5.10;4.60;;;10.20;99.90;;;;;;5063962;28;20449;-59
2022/03/15 06:57:31;;;;;;;5.90;4.97;;;10.20;99.90;;;;;;5061897;28;20475;-59
2022/03/15 07:00:02;;;;;;;7.93;5.97;;;10.10;99.90;;;;;;5062738;28;20448;-59
2022/03/15 07:02:33;;;;;;;6.63;4.87;;;10.20;99.90;;;;;;5059337;28;20456;-60
2022/03/15 07:05:05;;;;;;;5.97;4.63;;;10.20;99.90;;;;;;5059281;28;20508;-60
2022/03/15 07:07:35;;;;;;;5.27;4.50;;;10.30;99.90;;;;;;5074430;28;20823;-59
2022/03/15 07:10:09;;;;;;;6.27;5.67;;;10.30;99.90;;;;;;5063990;28;20458;-59
2022/03/15 07:12:40;;;;;;;5.40;4.30;;;10.30;99.90;;;;;;5060396;28;20462;-59
2022/03/15 07:15:11;;;;;;;6.17;5.43;;;10.30;99.90;;;;;;5064849;28;20460;-60
2022/03/15 07:17:51;;;;;;;4.97;4.47;;;10.30;99.90;;;;;;5068791;28;20484;-59
2022/03/15 07:20:23;;;;;;;6.07;4.53;;;10.40;99.90;;;;;;5061688;28;20449;-59
2022/03/15 07:22:55;;;;;;;5.33;4.73;;;10.40;99.90;;;;;;5066322;28;20500;-60
2022/03/15 07:25:27;;;;;;;5.93;4.40;;;10.40;99.90;;;;;;5063946;28;20440;-60
2022/03/15 07:27:58;;;;;;;7.60;5.07;;;10.40;99.90;;;;;;5064441;28;20460;-60
2022/03/15 07:30:29;;;;;;;6.83;4.20;;;10.40;99.90;;;;;;5062300;28;20967;-60
2022/03/15 07:33:00;;;;;;;5.33;4.80;;;10.40;99.90;;;;;;5061631;28;20463;-60
2022/03/15 07:35:30;;;;;;;9.30;4.50;;;10.40;99.90;;;;;;5063690;28;20452;-60
2022/03/15 07:38:01;;;;;;;5.23;4.20;;;10.40;99.90;;;;;;5061989;28;20456;-59
2022/03/15 07:40:35;;;;;;;5.67;4.33;;;10.50;99.90;;;;;;5063711;28;20519;-60
2022/03/15 07:43:06;;;;;;;7.03;4.27;;;10.40;99.90;;;;;;5060221;28;20448;-60
2022/03/15 07:45:36;;;;;;;5.87;4.60;;;10.40;99.90;;;;;;5064153;28;20459;-60
2022/03/15 07:48:08;;;;;;;4.47;3.73;;;10.50;99.90;;;;;;5070121;28;20463;-60
2022/03/15 07:50:39;;;;;;;3.47;3.13;;;10.50;99.90;;;;;;5061571;28;20452;-60
2022/03/15 07:53:10;;;;;;;3.40;3.10;;;10.50;99.90;;;;;;5066421;28;20443;-60
2022/03/15 07:55:42;;;;;;;5.60;4.40;;;10.50;99.90;;;;;;5061298;28;20471;-59
2022/03/15 07:58:13;;;;;;;4.47;3.70;;;10.50;99.90;;;;;;5060968;28;20464;-60
2022/03/15 08:00:45;;;;;;;6.20;3.77;;;10.50;99.90;;;;;;5061079;28;20453;-60
2022/03/15 08:03:16;;;;;;;5.67;3.73;;;10.50;99.90;;;;;;5059948;28;20475;-60
2022/03/15 08:05:46;;;;;;;5.43;3.43;;;10.60;99.90;;;;;;5061653;28;20483;-60
2022/03/15 08:08:18;;;;;;;4.80;3.57;;;10.50;99.90;;;;;;5062010;28;20457;-59
2022/03/15 08:10:51;;;;;;;3.87;3.47;;;10.60;99.90;;;;;;5061294;28;20452;-60
2022/03/15 08:13:21;;;;;;;5.93;3.70;;;10.60;99.90;;;;;;5055190;28;20463;-60
2022/03/15 08:15:52;;;;;;;3.80;3.13;;;10.60;99.90;;;;;;5071517;28;20613;-60
2022/03/15 08:18:23;;;;;;;3.20;2.80;;;10.70;99.90;;;;;;5063473;28;20477;-60
2022/03/15 08:20:55;;;;;;;4.80;3.17;;;10.70;99.90;;;;;;5054507;28;20454;-60
2022/03/15 08:23:25;;;;;;;3.90;2.60;;;10.70;99.90;;;;;;5053115;28;20472;-59
2022/03/15 08:25:58;;;;;;;3.47;2.53;;;10.80;99.90;;;;;;5060608;28;20646;-60
2022/03/15 08:28:29;;;;;;;3.57;2.47;;;10.80;99.90;;;;;;5062437;28;20451;-59
2022/03/15 08:31:01;;;;;;;8.60;2.60;;;10.80;99.90;;;;;;5061303;28;20453;-59
2022/03/15 08:33:32;;;;;;;4.40;2.93;;;10.80;99.90;;;;;;5059977;28;20463;-59
2022/03/15 08:36:03;;;;;;;2.77;1.90;;;10.80;99.90;;;;;;5061832;28;20451;-59
2022/03/15 08:38:34;;;;;;;2.50;2.07;;;10.80;99.90;;;;;;5061817;28;20436;-60
2022/03/15 08:41:07;;;;;;;2.43;2.03;;;10.90;99.90;;;;;;5061571;28;20461;-60
2022/03/15 08:43:37;;;;;;;2.77;1.60;;;11.00;99.90;;;;;;5060936;28;20456;-59
2022/03/15 08:46:08;;;;;;;2.30;2.10;;;11.00;99.90;;;;;;5069740;28;20449;-60
2022/03/15 08:48:39;;;;;;;2.27;1.90;;;11.10;99.90;;;;;;5061816;28;20444;-60
2022/03/15 08:51:10;;;;;;;1.93;1.40;;;11.10;99.90;;;;;;5059650;28;20547;-60
2022/03/15 08:53:41;;;;;;;3.47;2.17;;;11.10;99.90;;;;;;5059265;28;20515;-60
2022/03/15 08:56:13;;;;;;;2.43;1.87;;;11.10;99.90;;;;;;5067456;28;20455;-60
2022/03/15 08:58:44;;;;;;;3.43;1.50;;;11.20;99.90;;;;;;5067182;28;20452;-60
2022/03/15 09:01:16;;;;;;;4.13;2.50;;;11.20;99.90;;;;;;5064881;28;20448;-60
2022/03/15 09:04:03;;;;;;;3.63;1.93;;;11.20;99.90;;;;;;5061971;28;20466;-60
2022/03/15 09:06:34;;;;;;;1.87;1.77;;;11.20;99.90;;;;;;5064796;28;20464;-60
2022/03/15 09:09:05;;;;;;;1.90;1.80;;;11.20;99.90;;;;;;5064943;28;20424;-60
2022/03/15 09:11:37;;;;;;;1.33;1.23;;;11.20;99.90;;;;;;5067629;28;20452;-60
2022/03/15 09:14:08;;;;;;;2.13;1.60;;;11.20;99.90;;;;;;5066167;28;20515;-60
2022/03/15 09:16:39;;;;;;;1.47;1.37;;;11.20;99.90;;;;;;5064822;28;20478;-60
2022/03/15 09:19:11;;;;;;;2.77;2.07;;;11.30;99.90;;;;;;5065138;28;20444;-60
2022/03/15 09:21:41;;;;;;;2.67;2.47;;;11.30;99.90;;;;;;5064664;28;20452;-60
2022/03/15 09:24:12;;;;;;;2.30;1.63;;;11.30;99.90;;;;;;5067590;28;20542;-60
2022/03/15 09:26:45;;;;;;;3.13;1.77;;;11.30;99.90;;;;;;5065938;28;20456;-59
2022/03/15 09:29:16;;;;;;;1.40;1.30;;;11.30;99.90;;;;;;5063367;28;20456;-59
2022/03/15 09:31:47;;;;;;;1.80;1.70;;;11.30;99.90;;;;;;5064828;28;20548;-60
2022/03/15 09:34:22;;;;;;;2.97;1.70;;;11.40;99.90;;;;;;5063044;28;20506;-60
2022/03/15 09:36:53;;;;;;;1.40;1.30;;;11.40;99.90;;;;;;5063884;28;21263;-60
2022/03/15 09:39:25;;;;;;;1.37;1.30;;;11.40;99.90;;;;;;5063229;28;20456;-60
2022/03/15 09:41:59;;;;;;;3.07;1.10;;;11.40;99.90;;;;;;5068144;28;20455;-60
2022/03/15 09:44:31;;;;;;;2.17;1.87;;;11.50;99.90;;;;;;5067719;28;20490;-60
2022/03/15 09:47:04;;;;;;;1.50;1.40;;;11.50;99.90;;;;;;5051593;28;20467;-60
2022/03/15 09:49:36;;;;;;;1.37;1.27;;;11.50;99.90;;;;;;5065426;28;20452;-60
2022/03/15 09:52:09;;;;;;;1.40;1.30;;;11.50;99.90;;;;;;5064151;28;20449;-60
2022/03/15 09:54:40;;;;;;;1.77;1.30;;;11.50;99.90;;;;;;5062822;28;20519;-60
2022/03/15 09:57:13;;;;;;;1.23;1.17;;;11.50;99.90;;;;;;5063483;28;20456;-60
2022/03/15 09:59:43;;;;;;;4.90;1.57;;;11.40;99.90;;;;;;5064208;28;20511;-59
2022/03/15 10:02:15;;;;;;;1.93;1.50;;;11.40;99.90;;;;;;5076520;28;20451;-60
2022/03/15 10:04:46;;;;;;;1.63;1.53;;;11.30;99.90;;;;;;5062259;28;20553;-60
2022/03/15 10:07:17;;;;;;;2.10;1.60;;;11.30;99.90;;;;;;5064341;28;20444;-60
2022/03/15 10:09:47;;;;;;;4.27;1.93;;;11.30;99.90;;;;;;5067050;28;20447;-59
2022/03/15 10:12:20;;;;;;;1.90;1.60;;;11.30;99.90;;;;;;5063344;28;20448;-60
2022/03/15 10:14:51;;;;;;;2.07;1.50;;;11.30;99.90;;;;;;5048047;28;20516;-60
2022/03/15 10:17:21;;;;;;;1.43;1.33;;;11.30;99.90;;;;;;5062377;28;20494;-59
2022/03/15 10:19:54;;;;;;;2.10;1.40;;;11.30;99.90;;;;;;5066577;28;20459;-60
2022/03/15 10:22:26;;;;;;;1.57;1.47;;;11.20;99.90;;;;;;5067819;28;20452;-59
2022/03/15 10:24:58;;;;;;;2.77;1.50;;;11.20;99.90;;;;;;5063285;28;20480;-60
2022/03/15 10:27:35;;;;;;;1.43;1.20;;;11.10;99.90;;;;;;5062425;28;20575;-60
2022/03/15 10:30:08;;;;;;;1.37;1.10;;;11.10;99.90;;;;;;5059942;28;20460;-60
2022/03/15 10:32:38;;;;;;;0.90;0.90;;;11.10;99.90;;;;;;5065440;28;20471;-60
2022/03/15 10:35:10;;;;;;;0.83;0.80;;;11.10;99.90;;;;;;5066517;28;20460;-60
2022/03/15 10:37:43;;;;;;;1.50;1.00;;;11.00;99.90;;;;;;5063554;28;20528;-60
2022/03/15 10:40:14;;;;;;;1.90;1.03;;;11.00;99.90;;;;;;5064208;28;20944;-60
2022/03/15 10:42:48;;;;;;;0.97;0.90;;;10.90;99.90;;;;;;5061446;28;20456;-59
2022/03/15 10:45:20;;;;;;;0.83;0.83;;;10.80;99.90;;;;;;5062676;28;20480;-60
2022/03/15 10:47:53;;;;;;;1.13;1.03;;;10.80;99.90;;;;;;5065535;28;20472;-60
2022/03/15 10:50:24;;;;;;;0.70;0.70;;;10.70;99.90;;;;;;5064253;28;20453;-60
2022/03/15 10:52:55;;;;;;;1.00;0.80;;;10.60;99.90;;;;;;5066110;28;20454;-60
2022/03/15 10:55:29;;;;;;;0.67;0.60;;;10.60;99.90;;;;;;5063428;28;20528;-59
2022/03/15 10:58:05;;;;;;;0.87;0.60;;;10.60;99.90;;;;;;5063044;28;20990;-60
2022/03/15 11:00:43;;;;;;;0.70;0.70;;;10.60;99.90;;;;;;5062705;28;20520;-60
2022/03/15 11:03:19;;;;;;;0.70;0.67;;;10.50;99.90;;;;;;5062499;28;20548;-60
2022/03/15 11:05:50;;;;;;;1.00;0.80;;;10.50;99.90;;;;;;5050052;28;20504;-60
2022/03/15 11:08:22;;;;;;;1.13;0.63;;;10.50;99.90;;;;;;5066541;28;20466;-60
2022/03/15 11:10:54;;;;;;;0.73;0.73;;;10.50;99.90;;;;;;5065449;28;20448;-60
2022/03/15 11:13:30;;;;;;;1.83;0.87;;;10.40;99.90;;;;;;5061576;28;20456;-59
2022/03/15 11:16:02;;;;;;;0.90;0.70;;;10.40;99.90;;;;;;5062305;28;20476;-60
2022/03/15 11:18:34;;;;;;;0.80;0.70;;;10.40;99.90;;;;;;5066920;28;20451;-60
2022/03/15 11:21:07;;;;;;;1.57;0.70;;;10.30;99.90;;;;;;5072393;28;20448;-60
2022/03/15 11:23:43;;;;;;;0.83;0.70;;;10.30;99.90;;;;;;5062365;28;20448;-60
2022/03/15 11:26:17;;;;;;;2.30;1.10;;;10.30;99.90;;;;;;5063155;28;20486;-60
2022/03/15 11:28:51;;;;;;;3.57;1.20;;;10.30;99.90;;;;;;5062435;28;20451;-60
2022/03/15 11:31:23;;;;;;;4.67;1.10;;;10.20;99.90;;;;;;5065639;28;20458;-60
2022/03/15 11:33:56;;;;;;;1.93;0.67;;;10.20;99.90;;;;;;5061527;28;20466;-60
2022/03/15 11:36:27;;;;;;;3.10;1.00;;;10.20;99.90;;;;;;5062760;28;20444;-60
2022/03/15 11:38:59;;;;;;;2.40;1.20;;;10.20;99.90;;;;;;5062521;28;20190;-59
2022/03/15 11:41:30;;;;;;;2.63;1.20;;;10.20;99.90;;;;;;5066927;28;20517;-60
2022/03/15 11:44:15;;;;;;;2.40;1.50;;;10.20;99.90;;;;;;5060469;28;20448;-59
2022/03/15 11:46:52;;;;;;;3.60;1.57;;;10.20;99.90;;;;;;5063300;28;20498;-60
2022/03/15 11:49:33;;;;;;;4.37;1.83;;;10.30;99.90;;;;;;5061833;28;20454;-59
2022/03/15 11:52:17;;;;;;;1.80;1.20;;;10.30;99.90;;;;;;5062929;28;20509;-60
2022/03/15 11:54:55;;;;;;;2.60;0.87;;;10.30;99.90;;;;;;5067416;28;20454;-60
2022/03/15 11:57:31;;;;;;;3.83;1.67;;;10.40;99.90;;;;;;5060755;28;20487;-60
2022/03/15 12:00:03;;;;;;;4.50;1.43;;;10.30;99.90;;;;;;5062051;28;20512;-61
2022/03/15 12:02:39;;;;;;;5.07;1.70;;;10.30;99.90;;;;;;5065525;28;20454;-59
2022/03/15 12:05:17;;;;;;;1.33;1.13;;;10.30;99.90;;;;;;5066593;28;20448;-60
2022/03/15 12:07:50;;;;;;;5.23;1.67;;;10.40;99.90;;;;;;5063948;28;20484;-60
2022/03/15 12:10:28;;;;;;;4.73;1.63;;;10.40;99.90;;;;;;5062050;28;20455;-60
2022/03/15 12:13:20;;;;;;;7.17;1.90;;;10.40;99.90;;;;;;5060336;28;20487;-60
2022/03/15 12:15:53;;;;;;;7.07;3.47;;;10.40;99.90;;;;;;5061788;28;20486;-60
2022/03/15 12:18:42;;;;;;;6.67;1.90;;;10.30;99.90;;;;;;5062704;28;20474;-60
2022/03/15 12:21:14;;;;;;;4.30;1.77;;;10.20;99.90;;;;;;5059530;28;20433;-60
2022/03/15 12:23:46;;;;;;;4.00;1.73;;;10.20;99.90;;;;;;5060844;28;20606;-59
2022/03/15 12:26:21;;;;;;;5.77;1.33;;;10.20;99.90;;;;;;5061234;28;20491;-60
2022/03/15 12:29:02;;;;;;;8.80;1.87;;;10.30;99.90;;;;;;5050453;28;20464;-60
2022/03/15 12:31:40;;;;;;;4.23;2.03;;;10.20;99.90;;;;;;5053241;28;20463;-60
2022/03/15 12:34:12;;;;;;;6.80;2.70;;;10.20;99.90;;;;;;5057794;28;20539;-59
2022/03/15 12:36:50;;;;;;;6.20;3.20;;;10.10;99.90;;;;;;5061080;28;20446;-60
2022/03/15 12:39:22;;;;;;;7.33;2.67;;;10.10;99.90;;;;;;5061894;28;20450;-60
2022/03/15 12:42:04;;;;;;;6.80;2.43;;;10.00;99.90;;;;;;5065519;28;20456;-59
2022/03/15 12:44:46;;;;;;;7.07;2.53;;;10.10;99.90;;;;;;5064090;28;20460;-60
2022/03/15 12:47:22;;;;;;;7.80;2.57;;;10.10;99.90;;;;;;5065352;28;20798;-60
2022/03/15 12:50:12;;;;;;;5.27;2.63;;;10.00;99.90;;;;;;5064541;28;20480;-60
2022/03/15 12:52:51;;;;;;;9.95;2.88;;;9.90;99.90;;;;;;5064483;28;20458;-60
2022/03/15 12:55:24;;;;;;;7.60;2.60;;;9.90;99.90;;;;;;5064912;28;20805;-60
2022/03/15 12:57:56;;;;;;;6.20;2.60;;;9.90;99.90;;;;;;5067271;28;20447;-60
2022/03/15 13:00:32;;;;;;;6.32;2.42;;;9.80;99.90;;;;;;5069176;28;20436;-60
2022/03/15 13:03:07;;;;;;;4.90;3.03;;;9.80;99.90;;;;;;5066814;28;20695;-60
2022/03/15 13:05:41;;;;;;;6.82;2.20;;;9.70;99.90;;;;;;5068264;28;20508;-60
2022/03/15 13:08:14;;;;;;;4.77;2.47;;;9.80;99.90;;;;;;5071638;28;20221;-60
2022/03/15 13:10:47;;;;;;;7.10;2.20;;;9.80;99.90;;;;;;5064530;28;20493;-60
2022/03/15 13:13:27;;;;;;;6.43;1.87;;;9.90;99.90;;;;;;5064543;28;20864;-60
2022/03/15 13:16:00;;;;;;;3.63;2.35;;;9.80;99.90;;;;;;5064963;28;20484;-60
2022/03/15 13:18:34;;;;;;;6.18;2.42;;;9.80;99.90;;;;;;5063952;28;20206;-59